Time;durP1;ratioP1;P1;durP2;ratioP2;P2;SDS_P1;SDS_P2;PMS_P1;PMS_P2;Temp;Humidity;BMP_temperature;BMP_pressure;BME280_temperature;BME280_humidity;BME280_pressure;Samples;Min_cycle;Max_cycle;Signal;HPM_P1;HPM_P2
2022/11/27 00:00:21;;;;;;;;;;;;;;;-13.50;72.36;99434.03;6199658;28;20046;-67
2022/11/27 00:03:23;;;;;;;2.70;2.28;;;;;;;-13.57;72.51;99436.16;6198177;28;19939;-67
2022/11/27 00:06:31;;;;;;;3.90;2.63;;;;;;;-13.59;72.74;99425.03;6198912;28;20046;-67
2022/11/27 00:09:33;;;;;;;3.95;3.42;;;;;;;-13.53;72.70;99423.72;6199032;28;20038;-66
2022/11/27 00:12:35;;;;;;;6.18;2.90;;;;;;;-13.47;73.11;99424.13;6198211;28;20417;-66
2022/11/27 00:15:43;;;;;;;;;;;;;;;-13.37;72.97;99422.34;6199177;28;20046;-65
2022/11/27 00:18:49;;;;;;;12.30;3.65;;;;;;;-13.38;72.92;99412.13;6198899;28;19929;-66
2022/11/27 00:21:54;;;;;;;6.15;3.55;;;;;;;-13.30;72.85;99413.53;6198819;28;20501;-66
2022/11/27 00:24:58;;;;;;;7.10;3.42;;;;;;;-13.24;72.32;99413.94;6198799;28;20073;-66
2022/11/27 00:27:59;;;;;;;;;;;;;;;-13.11;72.29;99408.03;6198395;28;20057;-66
2022/11/27 00:31:06;;;;;;;5.03;2.78;;;;;;;-13.06;72.81;99411.75;6198587;28;19928;-66
2022/11/27 00:34:10;;;;;;;5.03;2.83;;;;;;;-12.99;72.29;99400.38;6197565;28;20046;-66
2022/11/27 00:37:13;;;;;;;6.43;3.58;;;;;;;-12.96;72.33;99408.22;6197409;28;20046;-67
2022/11/27 00:40:17;;;;;;;5.22;2.78;;;;;;;-12.92;72.24;99400.03;6197415;28;20421;-66
2022/11/27 00:43:19;;;;;;;10.20;5.30;;;;;;;-12.91;72.62;99391.63;6197559;28;20057;-66
2022/11/27 00:46:23;;;;;;;7.68;3.75;;;;;;;-12.85;72.66;99393.72;6197616;28;20050;-67
2022/11/27 00:49:25;;;;;;;5.63;3.40;;;;;;;-12.84;72.26;99391.28;6198061;28;20417;-67
2022/11/27 00:52:26;;;;;;;9.65;3.97;;;;;;;-12.81;72.08;99399.09;6197113;28;20390;-66
2022/11/27 00:55:27;;;;;;;13.45;5.15;;;;;;;-12.78;72.45;99401.84;6196866;28;20058;-68
2022/11/27 00:58:29;;;;;;;7.85;3.65;;;;;;;-12.80;72.05;99390.72;6197311;28;20537;-67
2022/11/27 01:01:39;;;;;;;13.65;4.25;;;;;;;-12.71;72.02;99393.88;6197098;28;20046;-66
2022/11/27 01:04:43;;;;;;;13.75;3.90;;;;;;;-12.66;72.53;99395.03;6197658;28;20057;-67
2022/11/27 01:07:47;;;;;;;10.93;4.15;;;;;;;-12.62;71.96;99391.06;6196666;28;20054;-66
2022/11/27 01:10:55;;;;;;;12.98;4.68;;;;;;;-12.73;72.18;99377.69;6197766;28;20074;-66
2022/11/27 01:14:00;;;;;;;9.02;3.95;;;;;;;-12.63;72.18;99390.97;6197560;28;20069;-67
2022/11/27 01:17:03;;;;;;;9.40;3.70;;;;;;;-12.61;71.98;99395.34;6196222;28;20050;-66
2022/11/27 01:20:05;;;;;;;6.97;3.50;;;;;;;-12.60;72.18;99388.63;6197478;28;20053;-66
2022/11/27 01:23:10;;;;;;;5.30;2.97;;;;;;;-12.58;72.04;99385.41;6196760;28;20046;-66
2022/11/27 01:26:12;;;;;;;12.77;4.45;;;;;;;-12.55;72.19;99389.81;6196598;28;20768;-67
2022/11/27 01:29:16;;;;;;;15.48;5.28;;;;;;;-12.55;71.75;99399.94;6196622;28;20057;-67
2022/11/27 01:32:17;;;;;;;;;;;;;;;-12.53;71.99;99394.22;6196941;28;20046;-66
2022/11/27 01:35:23;;;;;;;8.77;4.43;;;;;;;-12.60;72.14;99392.03;6197390;28;20063;-66
2022/11/27 01:38:26;;;;;;;10.13;5.20;;;;;;;-12.63;71.74;99390.97;6196602;28;20057;-67
2022/11/27 01:41:36;;;;;;;10.63;5.90;;;;;;;-12.66;72.04;99387.44;6197152;28;20529;-66
2022/11/27 01:44:51;;;;;;;11.50;4.18;;;;;;;-12.64;71.72;99377.41;6197151;28;20129;-66
2022/11/27 01:47:59;;;;;;;11.15;4.45;;;;;;;-12.59;72.14;99382.78;6196665;28;20053;-66
2022/11/27 01:51:01;;;;;;;6.90;3.90;;;;;;;-12.68;71.67;99368.72;6196989;28;20038;-67
2022/11/27 01:54:02;;;;;;;13.23;4.53;;;;;;;-12.63;72.10;99383.34;6196581;28;20200;-67
2022/11/27 01:57:12;;;;;;;14.10;5.32;;;;;;;-12.68;71.86;99383.94;6196954;28;20042;-66
2022/11/27 02:00:15;;;;;;;9.57;4.72;;;;;;;-12.68;72.17;99383.94;6196780;28;20045;-66
2022/11/27 02:03:17;;;;;;;13.60;5.03;;;;;;;-12.70;71.72;99385.47;6196772;28;20501;-66
2022/11/27 02:06:18;;;;;;;11.52;4.28;;;;;;;-12.70;71.92;99375.34;6196602;28;20039;-67
2022/11/27 02:09:22;;;;;;;12.60;4.82;;;;;;;-12.70;71.81;99377.88;6196679;28;20042;-67
2022/11/27 02:12:33;;;;;;;10.82;5.03;;;;;;;-12.63;71.98;99388.41;6196042;28;20046;-67
2022/11/27 02:15:42;;;;;;;9.32;4.70;;;;;;;-12.58;71.94;99394.69;6196071;28;20424;-67
2022/11/27 02:18:55;;;;;;;10.07;4.65;;;;;;;-12.60;71.83;99396.22;6196626;28;20045;-66
2022/11/27 02:22:14;;;;;;;9.95;5.00;;;;;;;-12.61;71.70;99389.41;6196786;28;20041;-67
2022/11/27 02:25:34;;;;;;;11.00;4.57;;;;;;;-12.55;71.63;99399.94;6179288;28;20045;-68
2022/11/27 02:28:59;;;;;;;15.48;4.93;;;;;;;-12.58;71.73;99394.69;6196632;28;20134;-68
2022/11/27 02:32:07;;;;;;;13.70;4.85;;;;;;;-12.64;72.06;99386.69;6179056;28;20046;-66
2022/11/27 02:35:30;;;;;;;6.53;3.35;;;;;;;-12.62;72.01;99387.63;6196625;28;20045;-66
2022/11/27 02:39:08;;;;;;;9.70;5.18;;;;;;;-12.61;71.65;99380.13;6196641;28;20049;-66
2022/11/27 02:42:17;;;;;;;14.18;4.35;;;;;;;-12.61;72.00;99374.19;6192526;28;20054;-66
2022/11/27 02:45:27;;;;;;;7.53;4.15;;;;;;;-12.66;72.11;99371.34;6195752;28;20051;-66
2022/11/27 02:48:44;;;;;;;14.90;5.55;;;;;;;-12.71;72.19;99376.13;6196359;28;20046;-67
2022/11/27 02:51:55;;;;;;;12.50;5.38;;;;;;;-12.73;71.90;99380.22;6196391;28;20046;-67
2022/11/27 02:55:05;;;;;;;9.93;4.97;;;;;;;-12.75;71.91;99376.69;6195365;28;20054;-67
2022/11/27 02:58:14;;;;;;;11.73;5.15;;;;;;;-12.71;72.18;99372.69;6196187;28;20137;-66
2022/11/27 03:01:19;;;;;;;17.95;6.45;;;;;;;-12.72;72.08;99369.28;6198466;28;20046;-67
2022/11/27 03:04:38;;;;;;;14.48;6.60;;;;;;;-12.70;71.90;99374.47;6200646;28;20501;-67
2022/11/27 03:07:43;;;;;;;16.02;6.40;;;;;;;-12.69;71.87;99379.63;6199769;28;20053;-67
2022/11/27 03:11:05;;;;;;;18.20;6.30;;;;;;;-12.68;71.67;99368.72;6200342;28;20044;-66
2022/11/27 03:14:11;;;;;;;19.35;6.70;;;;;;;-12.68;71.87;99372.88;6199482;28;20536;-67
2022/11/27 03:17:45;;;;;;;16.60;6.72;;;;;;;-12.71;71.78;99362.56;6199446;28;20575;-66
2022/11/27 03:20:58;;;;;;;15.45;5.72;;;;;;;-12.71;71.59;99373.59;6199610;28;20046;-67
2022/11/27 03:24:00;;;;;;;26.13;7.50;;;;;;;-12.71;71.88;99378.66;6200247;28;20437;-66
2022/11/27 03:27:05;;;;;;;13.43;6.53;;;;;;;-12.77;71.35;99374.81;6199948;28;20132;-66
2022/11/27 03:30:09;;;;;;;15.02;6.07;;;;;;;-12.86;71.64;99380.16;6199257;28;20047;-67
2022/11/27 03:33:14;;;;;;;7.00;3.53;;;;;;;-12.81;71.46;99390.63;6199846;28;20038;-66
2022/11/27 03:36:19;;;;;;;18.02;6.75;;;;;;;-12.89;72.08;99387.56;6199447;28;20046;-66
2022/11/27 03:39:21;;;;;;;14.90;6.03;;;;;;;-12.92;71.87;99392.44;6199727;28;20057;-68
2022/11/27 03:42:35;;;;;;;16.05;8.00;;;;;;;-12.86;71.91;99397.91;6199645;28;20038;-68
2022/11/27 03:45:45;;;;;;;;;;;;;;;-12.82;71.79;99407.50;6199995;28;20045;-67
2022/11/27 03:48:58;;;;;;;23.38;9.13;;;;;;;-12.85;71.85;99407.25;6199256;28;19921;-67
2022/11/27 03:52:56;;;;;;;23.55;8.05;;;;;;;-12.83;71.62;99413.31;6199246;28;20042;-66
2022/11/27 03:56:19;;;;;;;14.80;6.50;;;;;;;-12.82;71.75;99420.16;6126357;28;20051;-68
2022/11/27 03:59:27;;;;;;;24.83;9.15;;;;;;;-12.81;71.71;99416.84;6199232;28;20042;-67
2022/11/27 04:02:37;;;;;;;18.40;7.88;;;;;;;-12.80;71.50;99407.59;6198350;28;20128;-67
2022/11/27 04:05:38;;;;;;;20.70;7.80;;;;;;;-12.74;71.54;99408.84;6198315;28;20129;-66
2022/11/27 04:08:40;;;;;;;21.45;8.18;;;;;;;-12.64;71.83;99409.50;6198857;28;20046;-67
2022/11/27 04:11:44;;;;;;;31.27;10.30;;;;;;;-12.57;71.97;99406.56;6198623;28;20042;-67
2022/11/27 04:14:45;;;;;;;26.55;10.13;;;;;;;-12.48;72.06;99407.19;6197598;28;20512;-67
2022/11/27 04:17:49;;;;;;;31.58;8.88;;;;;;;-12.36;71.64;99408.00;6198382;28;20517;-67
2022/11/27 04:20:55;;;;;;;24.38;8.98;;;;;;;-12.23;71.20;99405.50;6198831;28;20047;-67
2022/11/27 04:24:01;;;;;;;23.05;8.75;;;;;;;-12.16;71.81;99406.75;6198627;28;20034;-66
2022/11/27 04:27:03;;;;;;;23.45;9.13;;;;;;;-12.12;71.32;99412.91;6197834;28;20572;-67
2022/11/27 04:30:07;;;;;;;;;;;;;;;-12.03;71.22;99413.50;6181994;28;20043;-66
2022/11/27 04:33:13;;;;;;;14.35;6.85;;;;;;;-11.99;71.31;99410.38;6181153;28;19972;-66
2022/11/27 04:36:21;;;;;;;22.02;7.95;;;;;;;-11.95;70.93;99414.88;6198333;28;20046;-67
2022/11/27 04:39:22;;;;;;;14.48;6.45;;;;;;;-11.86;71.13;99412.94;6198241;28;20129;-67
2022/11/27 04:42:24;;;;;;;10.32;5.15;;;;;;;-11.85;71.26;99427.34;6197335;28;20136;-66
2022/11/27 04:45:28;;;;;;;22.40;8.20;;;;;;;-11.84;71.16;99418.94;6198022;28;20441;-67
2022/11/27 04:48:34;;;;;;;16.88;8.02;;;;;;;-11.83;71.21;99425.78;6198057;28;20038;-67
2022/11/27 04:51:37;;;;;;;15.88;6.68;;;;;;;-11.96;71.02;99400.41;6197499;28;20057;-67
2022/11/27 04:54:39;;;;;;;;;;;;;;;-11.77;71.22;99418.56;6197190;28;20057;-67
2022/11/27 04:57:45;;;;;;;12.85;5.68;;;;;;;-11.73;71.24;99416.22;6197832;28;19917;-66
2022/11/27 05:00:51;;;;;;;13.27;5.93;;;;;;;-11.69;71.19;99413.06;6197733;28;20046;-67
2022/11/27 05:03:54;;;;;;;;;;;;;;;-11.62;70.99;99420.31;6180254;28;20073;-67
2022/11/27 05:07:00;;;;;;;9.38;4.40;;;;;;;-11.62;71.27;99423.72;6197642;28;20430;-67
2022/11/27 05:10:04;;;;;;;7.47;4.53;;;;;;;-11.62;71.42;99423.72;6196641;28;20050;-66
2022/11/27 05:13:07;;;;;;;8.32;4.68;;;;;;;-11.61;71.41;99424.59;6197382;28;20038;-67
2022/11/27 05:16:14;;;;;;;13.38;6.95;;;;;;;-11.59;71.38;99428.13;6196838;28;20066;-67
2022/11/27 05:19:19;;;;;;;10.60;5.68;;;;;;;-11.46;71.38;99422.13;6197287;28;20045;-67
2022/11/27 05:22:26;;;;;;;13.98;5.53;;;;;;;-11.38;71.30;99424.38;6196790;28;20421;-67
2022/11/27 05:25:33;;;;;;;13.90;6.25;;;;;;;-11.37;71.15;99408.34;6197251;28;20050;-67
2022/11/27 05:28:36;;;;;;;11.63;6.13;;;;;;;-11.34;71.24;99410.19;6197286;28;20386;-68
2022/11/27 05:31:42;;;;;;;17.23;6.90;;;;;;;-11.25;71.08;99414.97;6197098;28;20046;-67
2022/11/27 05:34:43;;;;;;;16.38;7.20;;;;;;;-11.13;71.05;99420.78;6197076;28;20034;-68
2022/11/27 05:37:47;;;;;;;24.63;10.07;;;;;;;-11.14;70.84;99413.97;6196140;28;20449;-67
2022/11/27 05:40:50;;;;;;;22.85;8.52;;;;;;;-11.09;70.92;99422.75;6196990;28;20050;-68
2022/11/27 05:43:57;;;;;;;16.77;7.95;;;;;;;-11.11;70.82;99406.53;6196697;28;20054;-68
2022/11/27 05:47:03;;;;;;;12.90;6.30;;;;;;;-11.05;70.69;99422.13;6196414;28;20525;-68
2022/11/27 05:50:08;;;;;;;12.27;6.45;;;;;;;-10.97;70.66;99426.03;6197033;28;20068;-68
2022/11/27 05:53:13;;;;;;;17.80;7.82;;;;;;;-10.86;70.70;99421.59;6195858;28;20505;-67
2022/11/27 05:56:17;;;;;;;12.18;6.05;;;;;;;-10.65;70.58;99427.06;6195627;28;20050;-67
2022/11/27 05:59:18;;;;;;;8.98;4.97;;;;;;;-10.43;70.56;99417.38;6195432;28;20155;-68
2022/11/27 06:02:20;;;;;;;12.82;6.10;;;;;;;-10.22;70.15;99409.19;6196833;28;20552;-67
2022/11/27 06:05:21;;;;;;;16.20;5.68;;;;;;;-10.03;69.55;99412.00;6196194;28;20070;-67
2022/11/27 06:08:25;;;;;;;9.02;4.78;;;;;;;-9.75;69.60;99413.53;6196515;28;20042;-68
2022/11/27 06:11:36;;;;;;;10.43;5.80;;;;;;;-9.39;69.25;99413.81;6196702;28;20046;-67
2022/11/27 06:14:37;;;;;;;11.88;5.22;;;;;;;-9.02;68.70;99408.16;6196226;28;20034;-67
2022/11/27 06:17:43;;;;;;;10.77;5.18;;;;;;;-8.76;68.17;99410.38;6196439;28;20054;-67
2022/11/27 06:20:47;;;;;;;12.88;6.03;;;;;;;-8.67;68.06;99408.28;6196563;28;20490;-67
2022/11/27 06:23:56;;;;;;;13.15;6.28;;;;;;;-8.70;67.58;99410.69;6196635;28;20046;-68
2022/11/27 06:26:59;;;;;;;14.23;6.78;;;;;;;-8.90;68.08;99380.72;6196013;28;20042;-67
2022/11/27 06:30:04;;;;;;;11.90;6.18;;;;;;;-9.03;68.09;99389.38;6196716;28;20501;-67
2022/11/27 06:33:08;;;;;;;15.65;7.57;;;;;;;-9.00;68.71;99396.31;6195626;28;20093;-67
2022/11/27 06:36:13;;;;;;;18.20;8.15;;;;;;;-8.91;68.79;99400.25;6201084;28;20401;-68
2022/11/27 06:39:21;;;;;;;18.23;7.72;;;;;;;-8.82;68.51;99404.97;6201289;28;20046;-67
2022/11/27 06:42:29;;;;;;;16.15;7.82;;;;;;;-8.69;68.46;99404.81;6200724;28;20137;-67
2022/11/27 06:45:33;;;;;;;13.27;6.55;;;;;;;-8.63;68.40;99397.47;6200713;28;20100;-68
2022/11/27 06:48:37;;;;;;;;;;;;;;;-8.53;68.23;99408.13;6201125;28;20460;-68
2022/11/27 06:51:38;;;;;;;11.02;4.82;;;;;;;-8.57;68.10;99411.34;6200011;28;19921;-67
2022/11/27 06:54:44;;;;;;;13.27;6.57;;;;;;;-8.66;68.38;99397.31;6200611;28;20046;-67
2022/11/27 06:57:49;;;;;;;16.20;6.32;;;;;;;-8.64;68.66;99399.91;6200292;28;20168;-67
2022/11/27 07:00:59;;;;;;;7.50;4.40;;;;;;;-8.61;68.26;99408.59;6200687;28;20050;-67
2022/11/27 07:04:00;;;;;;;15.90;7.60;;;;;;;-8.73;68.50;99413.09;6200054;28;20485;-67
2022/11/27 07:07:04;;;;;;;11.30;7.15;;;;;;;-8.81;68.55;99406.69;6199547;28;20054;-67
2022/11/27 07:10:13;;;;;;;18.17;8.23;;;;;;;-8.69;68.61;99402.25;6199152;28;20061;-68
2022/11/27 07:13:17;;;;;;;13.07;6.18;;;;;;;-8.50;68.53;99404.03;6199708;28;20053;-67
2022/11/27 07:16:24;;;;;;;16.67;7.40;;;;;;;-8.45;68.26;99410.28;6200086;28;20054;-67
2022/11/27 07:19:27;;;;;;;9.80;5.88;;;;;;;-8.38;68.22;99403.75;6199099;28;20054;-67
2022/11/27 07:22:33;;;;;;;18.20;7.82;;;;;;;-8.46;68.19;99400.88;6198703;28;20046;-68
2022/11/27 07:25:38;;;;;;;18.10;7.60;;;;;;;-8.57;67.88;99402.00;6181656;28;20185;-67
2022/11/27 07:28:44;;;;;;;19.15;8.27;;;;;;;-8.59;68.33;99409.56;6199655;28;20057;-68
2022/11/27 07:31:51;;;;;;;15.20;7.50;;;;;;;-8.54;68.46;99401.28;6199749;28;20038;-68
2022/11/27 07:34:56;;;;;;;11.32;6.38;;;;;;;-8.48;68.36;99396.47;6199496;28;20566;-67
2022/11/27 07:38:00;;;;;;;12.82;7.05;;;;;;;-8.32;68.22;99393.88;6199446;28;20054;-67
2022/11/27 07:41:03;;;;;;;12.57;6.45;;;;;;;-8.29;67.57;99393.13;6199057;28;20540;-68
2022/11/27 07:44:10;;;;;;;13.90;7.75;;;;;;;-8.34;67.68;99394.59;6199284;28;20050;-67
2022/11/27 07:47:12;;;;;;;19.05;8.55;;;;;;;-8.38;68.27;99384.22;6197983;28;20141;-67
2022/11/27 07:50:14;;;;;;;15.68;7.97;;;;;;;-8.21;67.86;99391.81;6198521;28;20065;-67
2022/11/27 07:53:15;;;;;;;14.88;8.30;;;;;;;-8.05;67.58;99390.91;6198169;28;20428;-67
2022/11/27 07:56:17;;;;;;;12.10;6.70;;;;;;;-7.93;67.70;99399.16;6198406;28;20050;-67
2022/11/27 07:59:18;;;;;;;6.82;4.20;;;;;;;-7.81;67.43;99384.44;6199146;28;20190;-68
2022/11/27 08:02:23;;;;;;;14.77;6.80;;;;;;;-7.86;66.82;99391.00;6198973;28;20034;-67
2022/11/27 08:05:28;;;;;;;10.38;5.55;;;;;;;-7.86;67.76;99375.66;6198681;28;20038;-67
2022/11/27 08:08:34;;;;;;;14.00;6.93;;;;;;;-7.81;67.56;99392.09;6197812;28;20054;-67
2022/11/27 08:11:42;;;;;;;13.00;5.13;;;;;;;-7.82;66.93;99385.22;6198843;28;20505;-67
2022/11/27 08:14:46;;;;;;;11.13;4.57;;;;;;;-8.00;67.42;99387.78;6198871;28;20529;-68
2022/11/27 08:17:52;;;;;;;11.95;4.88;;;;;;;-8.05;67.51;99393.47;6155480;28;20542;-68
2022/11/27 08:21:01;;;;;;;20.00;8.90;;;;;;;-8.16;67.46;99396.34;6150771;29;20055;-68
2022/11/27 08:24:06;;;;;;;14.57;7.00;;;;;;;-8.17;67.57;99392.06;6150656;29;20050;-68
2022/11/27 08:27:08;;;;;;;18.58;7.28;;;;;;;-8.15;68.10;99393.03;6149896;28;20146;-68
2022/11/27 08:30:10;;;;;;;15.00;5.68;;;;;;;-8.05;67.69;99388.34;6150321;29;20043;-67
2022/11/27 08:33:14;;;;;;;14.68;5.90;;;;;;;-7.96;67.56;99386.25;6150034;28;20059;-68
2022/11/27 08:36:19;;;;;;;19.13;7.00;;;;;;;-7.89;67.38;99385.75;6150234;28;20047;-68
2022/11/27 08:39:21;;;;;;;17.85;7.90;;;;;;;-7.78;67.32;99389.69;6149285;28;20431;-67
2022/11/27 08:42:28;;;;;;;12.25;5.90;;;;;;;-7.74;67.07;99386.47;6149933;29;20043;-68
2022/11/27 08:45:31;;;;;;;14.60;5.65;;;;;;;-7.74;66.70;99377.94;6150031;28;20043;-68
2022/11/27 08:48:37;;;;;;;11.43;5.78;;;;;;;-7.80;66.77;99375.97;6149742;29;20414;-67
2022/11/27 08:51:41;;;;;;;15.73;5.35;;;;;;;-7.87;67.09;99368.78;6149652;28;20186;-67
2022/11/27 08:54:44;;;;;;;15.63;6.40;;;;;;;-7.98;66.86;99364.84;6149665;28;20067;-67
2022/11/27 08:57:48;;;;;;;18.48;6.50;;;;;;;-8.07;66.83;99364.41;6148649;28;20077;-67
2022/11/27 09:00:52;;;;;;;16.65;7.82;;;;;;;-8.05;67.45;99370.47;6149644;28;20062;-67
2022/11/27 09:03:56;;;;;;;17.23;7.22;;;;;;;-8.10;67.27;99369.38;6149722;28;20151;-67
2022/11/27 09:06:57;;;;;;;;;;;;;;;-8.11;67.17;99367.63;6149662;29;20058;-67
2022/11/27 09:10:05;;;;;;;14.13;7.22;;;;;;;-8.17;67.52;99358.84;6149417;28;19971;-69
2022/11/27 09:13:06;;;;;;;15.60;7.90;;;;;;;-8.25;67.19;99355.03;6148682;28;20070;-68
2022/11/27 09:16:16;;;;;;;14.10;7.47;;;;;;;-8.26;67.65;99353.31;6158544;28;20053;-67
2022/11/27 09:19:24;;;;;;;17.48;7.57;;;;;;;-8.25;67.73;99357.59;6196448;28;20050;-68
2022/11/27 09:22:32;;;;;;;14.43;8.02;;;;;;;-8.25;67.87;99360.16;6180372;28;20054;-67
2022/11/27 09:25:38;;;;;;;11.23;6.10;;;;;;;-8.24;67.77;99366.13;6196572;28;20069;-67
2022/11/27 09:28:43;;;;;;;22.17;10.80;;;;;;;-8.38;67.59;99368.00;6196279;28;20054;-67
2022/11/27 09:31:47;;;;;;;17.02;9.20;;;;;;;-8.52;67.49;99369.94;6196167;28;20057;-67
2022/11/27 09:34:54;;;;;;;15.27;6.82;;;;;;;-8.68;68.32;99363.16;6196192;28;20077;-68
2022/11/27 09:37:55;;;;;;;14.90;6.88;;;;;;;-8.83;68.12;99362.34;6196260;28;20051;-67
2022/11/27 09:41:13;;;;;;;10.25;6.00;;;;;;;-9.01;68.47;99361.44;6196807;28;20042;-67
2022/11/27 09:44:41;;;;;;;12.90;7.60;;;;;;;-9.15;68.72;99359.00;6196231;28;20054;-67
2022/11/27 09:48:00;;;;;;;10.60;6.05;;;;;;;-9.37;69.38;99351.03;6196917;28;20517;-67
2022/11/27 09:51:22;;;;;;;12.85;5.88;;;;;;;-9.59;69.50;99355.00;6195859;28;20062;-67
2022/11/27 09:54:36;;;;;;;8.77;5.63;;;;;;;-9.62;69.77;99359.94;6195580;28;20055;-67
2022/11/27 09:57:40;;;;;;;;;;;;;;;-9.63;69.46;99357.28;6196684;28;20061;-67
2022/11/27 10:00:44;;;;;;;14.75;6.45;;;;;;;-9.59;69.63;99359.22;6195835;28;19925;-67
2022/11/27 10:03:48;;;;;;;15.35;6.25;;;;;;;-9.58;69.40;99356.72;6195739;28;20054;-67
2022/11/27 10:07:13;;;;;;;14.85;5.70;;;;;;;-9.56;69.48;99360.25;6196108;28;20054;-67
2022/11/27 10:10:44;;;;;;;12.13;5.38;;;;;;;-9.51;69.31;99363.03;6200276;28;20050;-67
2022/11/27 10:14:06;;;;;;;11.38;5.88;;;;;;;-9.53;69.69;99365.50;6200748;28;20057;-68
2022/11/27 10:17:25;;;;;;;11.52;5.72;;;;;;;-9.50;69.32;99364.81;6200634;28;20177;-67
2022/11/27 10:20:45;;;;;;;12.73;6.18;;;;;;;-9.39;69.49;99367.94;6201351;28;20068;-67
2022/11/27 10:24:05;;;;;;;11.38;4.70;;;;;;;-9.38;69.54;99374.78;6200586;28;20057;-68
2022/11/27 10:27:27;;;;;;;9.90;5.45;;;;;;;-9.37;69.26;99373.97;6200422;28;20054;-68
2022/11/27 10:30:38;;;;;;;17.00;7.22;;;;;;;-9.32;69.42;99360.69;6201225;28;20050;-67
2022/11/27 10:33:49;;;;;;;12.10;5.50;;;;;;;-9.33;69.15;99365.72;6200160;28;20057;-68
2022/11/27 10:36:56;;;;;;;8.82;4.28;;;;;;;-9.37;69.55;99376.53;6200919;28;20054;-67
2022/11/27 10:40:17;;;;;;;17.05;7.78;;;;;;;-9.46;69.24;99360.75;6200451;28;20509;-67
2022/11/27 10:43:23;;;;;;;16.35;7.28;;;;;;;-9.57;69.37;99368.66;6200738;28;20410;-67
2022/11/27 10:46:29;;;;;;;15.13;7.65;;;;;;;-9.63;69.43;99375.13;6200716;28;20399;-67
2022/11/27 10:49:37;;;;;;;13.63;6.97;;;;;;;-9.71;69.61;99372.13;6200488;28;20523;-67
2022/11/27 10:53:08;;;;;;;16.35;7.35;;;;;;;-9.80;69.73;99366.53;6200388;28;20137;-67
2022/11/27 10:56:14;;;;;;;22.85;9.13;;;;;;;-9.87;69.71;99374.66;6187914;28;20054;-68
2022/11/27 10:59:28;;;;;;;16.55;7.72;;;;;;;-9.92;69.87;99378.63;6200227;28;20462;-68
2022/11/27 11:02:41;;;;;;;31.52;10.93;;;;;;;-10.05;69.95;99377.91;6200405;28;20050;-67
2022/11/27 11:06:19;;;;;;;24.52;10.45;;;;;;;-10.17;70.22;99379.78;6200336;28;20043;-68
2022/11/27 11:09:26;;;;;;;15.60;7.25;;;;;;;-10.18;70.29;99388.22;6199765;28;20053;-67
2022/11/27 11:12:32;;;;;;;24.10;10.52;;;;;;;-10.29;70.33;99382.53;6200178;28;20050;-67
2022/11/27 11:15:53;;;;;;;32.58;11.35;;;;;;;-10.72;70.47;99313.91;6199812;28;20050;-67
2022/11/27 11:18:56;;;;;;;25.73;8.80;;;;;;;-10.35;70.60;99392.38;6199667;28;20433;-67
2022/11/27 11:21:59;;;;;;;25.83;10.38;;;;;;;-10.43;70.72;99378.31;6198148;28;20055;-67
2022/11/27 11:25:01;;;;;;;22.20;9.07;;;;;;;-10.47;70.70;99387.47;6199297;28;20049;-67
2022/11/27 11:28:05;;;;;;;27.67;11.02;;;;;;;-10.47;70.68;99392.53;6199014;28;20058;-67
2022/11/27 11:31:13;;;;;;;32.58;13.35;;;;;;;-10.53;70.44;99392.19;6198747;28;20153;-67
2022/11/27 11:34:30;;;;;;;22.80;9.10;;;;;;;-10.50;70.77;99397.47;6199732;28;20057;-68
2022/11/27 11:37:38;;;;;;;22.38;9.55;;;;;;;-10.51;70.58;99385.50;6199449;28;20050;-67
2022/11/27 11:40:55;;;;;;;25.52;11.30;;;;;;;-10.55;70.79;99396.31;6199411;28;20058;-67
2022/11/27 11:44:01;;;;;;;15.98;7.72;;;;;;;-10.57;70.86;99392.78;6199505;28;20046;-68
2022/11/27 11:47:04;;;;;;;28.77;8.93;;;;;;;-10.54;71.03;99400.59;6199331;28;20057;-67
2022/11/27 11:50:12;;;;;;;25.75;8.13;;;;;;;-10.54;70.87;99397.19;6198705;28;20075;-67
2022/11/27 11:53:56;;;;;;;13.57;6.47;;;;;;;-10.50;70.51;99394.91;6199029;28;20398;-67
2022/11/27 11:57:05;;;;;;;20.83;8.80;;;;;;;-10.58;70.98;99398.69;6198631;28;20583;-67
2022/11/27 12:00:14;;;;;;;16.17;7.80;;;;;;;-10.59;70.99;99396.91;6198059;28;20146;-67
2022/11/27 12:03:36;;;;;;;15.70;7.22;;;;;;;-10.62;71.02;99407.78;6199184;28;20053;-67
2022/11/27 12:07:17;;;;;;;17.88;8.50;;;;;;;-10.65;70.96;99401.63;6199041;28;20046;-68
2022/11/27 12:10:24;;;;;;;16.83;8.80;;;;;;;-10.68;71.14;99411.63;6198059;28;20050;-69
2022/11/27 12:13:50;;;;;;;22.55;9.23;;;;;;;-10.75;71.10;99404.44;6198402;28;20061;-67
2022/11/27 12:16:54;;;;;;;16.38;7.45;;;;;;;-10.87;71.32;99396.94;6198047;28;20057;-68
2022/11/27 12:20:17;;;;;;;16.38;10.48;;;;;;;-10.92;71.56;99398.34;6180741;28;20080;-67
2022/11/27 12:23:38;;;;;;;17.60;9.35;;;;;;;-10.98;71.54;99396.31;6197761;28;20057;-68
2022/11/27 12:27:33;;;;;;;23.30;10.48;;;;;;;-11.10;71.63;99390.47;6197840;28;20078;-67
2022/11/27 12:30:57;;;;;;;17.05;8.88;;;;;;;-11.10;71.90;99382.84;6091425;28;20513;-68
2022/11/27 12:34:05;;;;;;;20.20;11.32;;;;;;;-11.12;71.86;99381.91;6197430;28;20046;-68
2022/11/27 12:37:21;;;;;;;22.80;12.05;;;;;;;-11.16;71.84;99379.94;6198342;28;20042;-68
2022/11/27 12:40:53;;;;;;;27.45;13.52;;;;;;;-11.12;71.76;99379.34;6198462;28;20050;-69
2022/11/27 12:43:59;;;;;;;20.98;12.60;;;;;;;-11.12;72.06;99381.91;6198375;28;20049;-68
2022/11/27 12:47:34;;;;;;;31.92;14.43;;;;;;;-11.15;71.86;99359.72;6198182;28;20046;-68
2022/11/27 12:50:44;;;;;;;26.38;14.35;;;;;;;-11.09;71.60;99374.44;6197392;28;20085;-68
2022/11/27 12:53:54;;;;;;;28.17;13.05;;;;;;;-11.10;71.56;99375.22;6198152;28;20038;-67
2022/11/27 12:57:07;;;;;;;23.05;12.18;;;;;;;-11.11;71.57;99373.47;6198119;28;20054;-68
2022/11/27 13:00:36;;;;;;;19.90;11.02;;;;;;;-11.14;71.44;99368.22;6196854;28;20480;-68
2022/11/27 13:04:20;;;;;;;23.63;11.43;;;;;;;-11.17;71.54;99379.06;6197242;28;20051;-68
2022/11/27 13:07:51;;;;;;;26.25;9.70;;;;;;;-11.25;71.88;99381.94;6191700;28;20057;-68
2022/11/27 13:11:06;;;;;;;19.85;10.02;;;;;;;-11.24;71.51;99388.75;6196800;28;20065;-67
2022/11/27 13:14:12;;;;;;;19.10;10.15;;;;;;;-11.25;71.90;99384.47;6196861;28;20141;-67
2022/11/27 13:17:16;;;;;;;19.67;9.88;;;;;;;-11.30;71.81;99382.50;6195910;28;20046;-67
2022/11/27 13:20:28;;;;;;;18.02;8.73;;;;;;;-11.34;71.51;99380.56;6196770;28;20046;-68
2022/11/27 13:23:33;;;;;;;21.27;11.20;;;;;;;-11.36;71.77;99371.09;6196845;28;20046;-67
2022/11/27 13:26:49;;;;;;;27.30;11.43;;;;;;;-11.35;71.68;99376.28;6197716;28;20061;-67
2022/11/27 13:30:22;;;;;;;20.38;11.32;;;;;;;-11.38;71.38;99360.84;6195859;28;20378;-69
2022/11/27 13:33:40;;;;;;;18.92;10.63;;;;;;;-11.31;71.19;99360.44;6177645;28;20513;-68
2022/11/27 13:36:47;;;;;;;19.52;10.70;;;;;;;-11.31;71.55;99359.56;6179265;28;20481;-68
2022/11/27 13:39:59;;;;;;;21.55;10.98;;;;;;;-11.23;71.38;99367.66;6180725;28;20046;-69
2022/11/27 13:43:05;;;;;;;21.23;10.20;;;;;;;-11.20;71.12;99360.22;6196067;28;20137;-69
2022/11/27 13:46:19;;;;;;;23.30;10.68;;;;;;;-11.20;71.19;99357.69;6196763;28;20056;-68
2022/11/27 13:49:36;;;;;;;19.45;10.27;;;;;;;-11.19;71.33;99369.59;6196285;28;20500;-68
2022/11/27 13:52:56;;;;;;;17.13;10.02;;;;;;;-11.22;71.32;99365.19;6196414;28;20423;-69
2022/11/27 13:55:58;;;;;;;18.58;9.43;;;;;;;-11.15;71.14;99377.50;6196122;28;20054;-69
2022/11/27 13:59:25;;;;;;;29.08;13.20;;;;;;;-11.09;71.35;99377.88;6196838;28;20046;-68
2022/11/27 14:02:47;;;;;;;18.38;9.43;;;;;;;-11.06;71.28;99377.19;6196487;28;20050;-69
2022/11/27 14:05:49;;;;;;;16.20;9.65;;;;;;;-11.11;71.38;99373.47;6196462;28;20053;-68
2022/11/27 14:08:59;;;;;;;21.15;9.23;;;;;;;-11.16;71.02;99380.81;6196037;28;20394;-69
2022/11/27 14:12:12;;;;;;;11.95;7.30;;;;;;;-11.16;71.26;99379.94;6163744;28;20069;-70
2022/11/27 14:15:22;;;;;;;12.82;7.38;;;;;;;-11.15;71.27;99384.22;6196903;28;20046;-67
2022/11/27 14:18:29;;;;;;;19.27;7.90;;;;;;;-11.15;71.71;99376.59;6196315;28;20055;-68
2022/11/27 14:21:40;;;;;;;15.15;7.72;;;;;;;-11.16;71.11;99377.41;6196021;28;20054;-68
2022/11/27 14:24:52;;;;;;;14.65;8.32;;;;;;;-11.21;71.44;99377.09;6195690;28;20069;-69
2022/11/27 14:28:34;;;;;;;15.38;8.07;;;;;;;-11.32;71.21;99379.03;6196551;28;20133;-69
2022/11/27 14:31:38;;;;;;;17.95;8.30;;;;;;;-11.44;71.42;99373.16;6193389;28;20051;-68
2022/11/27 14:34:42;;;;;;;16.42;6.60;;;;;;;-11.48;71.49;99371.22;6196561;28;20081;-68